KCPR/CPR METAR and TAF weather

Enter ICAO airport designator
Station Type Date Time Source
KCPR METAR 2018/12/10 16:53 UTC NOAA

KCPR 101653Z 22017G33KT 10SM CLR 01/M11 A3018 RMK AO2 PK WND 21033/1646 SLP243 T00111106


Station Type Date Time Source
KCPR Decoded METAR 2018/12/10 16:53 UTC NOAA

NATRONA COUNTY INTERNATIONAL AIRPORT , WY, United States (KCPR) 42-54N 106-28W 1621M
Dec 10, 2018 - 11:53 AM EST / 2018.12.10 1653 UTC
Wind: from the SW (220 degrees) at 20 MPH (17 KT) gusting to 38 MPH (33 KT):0
Visibility: 10 mile(s):0
Sky conditions: clear
Temperature: 34.0 F (1.1 C)
Windchill: 23 F (-5 C):1
Dew Point: 12.9 F (-10.6 C)
Relative Humidity: 41%
Pressure (altimeter): 30.18 in. Hg (1022 hPa)
ob: KCPR 101653Z 22017G33KT 10SM CLR 01/M11 A3018 RMK AO2 PK WND 21033/1646 SLP243 T00111106
cycle: 17

Station Type Date Time Source
KCPR TAF 2018/12/10 18:28 UTC NOAA

TAF KCPR 101725Z 1018/1118 22025G35KT P6SM FEW150 BKN200
FM110100 22017G25KT P6SM SCT150 BKN200
FM110900 22011KT P6SM VCSH OVC120
FM111500 25011KT P6SM BKN120


Example: see airport list